createdAt,value
2022-12-07T00:00:20.929Z,100.929
2022-12-07T00:01:20.980Z,100.929
2022-12-07T00:02:21.069Z,100.929
2022-12-07T00:03:21.103Z,100.929
2022-12-07T00:04:21.043Z,101
2022-12-07T00:05:21.083Z,100.929
2022-12-07T00:06:21.112Z,101.071
2022-12-07T00:07:26.335Z,100.857
2022-12-07T00:08:21.241Z,100.929
2022-12-07T00:09:21.194Z,100.857
2022-12-07T00:10:21.230Z,100.857
2022-12-07T00:11:21.282Z,101.143
2022-12-07T00:12:21.305Z,101.071
2022-12-07T00:13:21.323Z,101.143
2022-12-07T00:14:21.350Z,100.857
2022-12-07T00:15:21.421Z,101
2022-12-07T00:16:21.502Z,100.857
2022-12-07T00:17:21.459Z,100.857
2022-12-07T00:18:21.484Z,101
2022-12-07T00:19:21.525Z,101
2022-12-07T00:20:21.566Z,101
2022-12-07T00:21:21.578Z,100.857
2022-12-07T00:22:21.617Z,101
2022-12-07T00:23:21.650Z,101
2022-12-07T00:24:21.683Z,100.786
2022-12-07T00:25:21.710Z,100.929
2022-12-07T00:26:21.747Z,101.071
2022-12-07T00:27:21.776Z,100.929
2022-12-07T00:28:21.816Z,100.929
2022-12-07T00:29:21.863Z,101
2022-12-07T00:30:21.890Z,100.929
2022-12-07T00:31:21.982Z,101
2022-12-07T00:32:21.945Z,101
2022-12-07T00:33:21.988Z,100.929
2022-12-07T00:34:22.022Z,101
2022-12-07T00:35:22.073Z,100.929
2022-12-07T00:36:26.648Z,101
2022-12-07T00:37:22.107Z,101
2022-12-07T00:38:22.147Z,100.929
2022-12-07T00:39:22.170Z,100.857
2022-12-07T00:40:22.237Z,101
2022-12-07T00:41:22.236Z,100.857
2022-12-07T00:42:22.271Z,100.857
2022-12-07T00:43:22.304Z,100.857
2022-12-07T00:44:22.336Z,101.071
2022-12-07T00:45:22.463Z,100.857
2022-12-07T00:46:22.547Z,101.143
2022-12-07T00:47:22.438Z,100.857
2022-12-07T00:48:22.472Z,101
2022-12-07T00:49:22.502Z,100.571
2022-12-07T00:50:22.524Z,100.786
2022-12-07T00:51:22.555Z,100.786
2022-12-07T00:52:22.591Z,101
2022-12-07T00:53:22.621Z,100.857
2022-12-07T00:54:22.651Z,101.071
2022-12-07T00:55:22.684Z,100.786
2022-12-07T00:56:22.729Z,100.929
2022-12-07T00:57:22.738Z,101
2022-12-07T00:58:22.773Z,101
2022-12-07T00:59:22.801Z,101
2022-12-07T01:00:22.837Z,101
2022-12-07T01:01:23.014Z,100.929
2022-12-07T01:02:22.900Z,101.071
2022-12-07T01:03:22.948Z,101
2022-12-07T01:04:22.956Z,101.143
2022-12-07T01:05:23.018Z,100.929
2022-12-07T01:06:23.008Z,101
2022-12-07T01:07:23.027Z,100.857
2022-12-07T01:08:23.099Z,101
2022-12-07T01:09:23.094Z,100.857
2022-12-07T01:10:23.140Z,100.929
2022-12-07T01:11:23.159Z,100.857
2022-12-07T01:12:23.182Z,100.857
2022-12-07T01:13:23.215Z,100.786
2022-12-07T01:14:23.235Z,100.929
2022-12-07T01:15:23.271Z,100.929
2022-12-07T01:16:23.361Z,100.929
2022-12-07T01:17:23.330Z,100.786
2022-12-07T01:18:23.356Z,100.929
2022-12-07T01:19:23.392Z,101
2022-12-07T01:20:23.418Z,100.786
2022-12-07T01:21:23.445Z,100.786
2022-12-07T01:22:23.478Z,100.786
2022-12-07T01:23:23.508Z,100.929
2022-12-07T01:24:23.538Z,100.929
2022-12-07T01:25:23.568Z,100.929
2022-12-07T01:26:23.607Z,101
2022-12-07T01:27:23.633Z,100.929
2022-12-07T01:28:23.665Z,100.857
2022-12-07T01:29:23.701Z,100.929
2022-12-07T01:30:23.893Z,100.929
2022-12-07T01:31:23.868Z,100.786
2022-12-07T01:32:23.807Z,100.857
2022-12-07T01:33:23.840Z,100.786
2022-12-07T01:34:23.893Z,100.929
2022-12-07T01:35:23.919Z,100.714
2022-12-07T01:36:23.939Z,100.929
2022-12-07T01:37:23.980Z,100.786
2022-12-07T01:38:24.015Z,100.786
2022-12-07T01:39:24.048Z,100.786
2022-12-07T01:40:24.089Z,100.786
2022-12-07T01:41:24.112Z,101
2022-12-07T01:42:24.140Z,100.929
2022-12-07T01:43:24.177Z,100.786
2022-12-07T01:44:24.205Z,100.929
2022-12-07T01:45:24.243Z,100.786
2022-12-07T01:46:24.321Z,100.857
2022-12-07T01:47:24.303Z,100.857
2022-12-07T01:48:24.332Z,100.786
2022-12-07T01:49:24.355Z,100.857
2022-12-07T01:50:24.379Z,100.857
2022-12-07T01:51:24.414Z,100.857
2022-12-07T01:52:24.451Z,100.857
2022-12-07T01:53:24.483Z,100.857
2022-12-07T01:54:24.516Z,100.929
2022-12-07T01:55:24.551Z,100.5
2022-12-07T01:56:24.583Z,101
2022-12-07T01:57:24.620Z,100.714
2022-12-07T01:58:24.647Z,100.857
2022-12-07T01:59:24.673Z,100.643
2022-12-07T02:00:24.712Z,100.857
2022-12-07T02:01:24.804Z,101
2022-12-07T02:02:24.825Z,100.714
2022-12-07T02:03:24.802Z,100.857
2022-12-07T02:04:24.843Z,100.929
2022-12-07T02:05:24.893Z,100.929
2022-12-07T02:06:24.893Z,100.643
2022-12-07T02:07:24.921Z,100.643
2022-12-07T02:08:25.062Z,101
2022-12-07T02:09:24.984Z,100.929
2022-12-07T02:10:25.027Z,100.857
2022-12-07T02:11:25.052Z,100.929
2022-12-07T02:12:25.084Z,100.786
2022-12-07T02:13:25.122Z,100.929
2022-12-07T02:14:25.153Z,100.786
2022-12-07T02:15:25.192Z,100.857
2022-12-07T02:16:25.319Z,100.857
2022-12-07T02:17:25.258Z,100.857
2022-12-07T02:18:25.293Z,100.857
2022-12-07T02:19:25.325Z,100.857
2022-12-07T02:20:25.361Z,100.786
2022-12-07T02:21:25.380Z,100.857
2022-12-07T02:22:25.414Z,100.857
2022-12-07T02:23:25.462Z,100.929
2022-12-07T02:24:25.494Z,100.786
2022-12-07T02:25:25.527Z,100.857
2022-12-07T02:26:25.556Z,100.857
2022-12-07T02:27:25.606Z,100.714
2022-12-07T02:28:25.616Z,100.857
2022-12-07T02:29:25.638Z,100.786
2022-12-07T02:30:25.674Z,100.929
2022-12-07T02:31:25.845Z,100.857
2022-12-07T02:32:25.753Z,100.857
2022-12-07T02:33:25.789Z,100.714
2022-12-07T02:34:25.814Z,100.714
2022-12-07T02:35:25.840Z,100.857
2022-12-07T02:36:25.864Z,100.714
2022-12-07T02:37:25.907Z,100.786
2022-12-07T02:38:25.945Z,100.786
2022-12-07T02:39:25.980Z,100.786
2022-12-07T02:40:26.007Z,100.714
2022-12-07T02:41:26.041Z,100.786
2022-12-07T02:42:26.078Z,100.714
2022-12-07T02:43:26.093Z,100.857
2022-12-07T02:44:26.134Z,100.929
2022-12-07T02:45:26.221Z,100.857
2022-12-07T02:46:26.242Z,100.714
2022-12-07T02:47:26.229Z,100.857
2022-12-07T02:48:26.260Z,100.857
2022-12-07T02:49:26.294Z,100.714
2022-12-07T02:50:26.315Z,100.786
2022-12-07T02:51:26.356Z,100.929
2022-12-07T02:52:26.393Z,100.714
2022-12-07T02:53:26.439Z,100.786
2022-12-07T02:54:26.466Z,100.857
2022-12-07T02:55:26.512Z,100.714
2022-12-07T02:56:26.538Z,100.786
2022-12-07T02:57:26.574Z,100.714
2022-12-07T02:58:26.606Z,100.786
2022-12-07T02:59:26.638Z,100.786
2022-12-07T03:00:26.680Z,100.857
2022-12-07T03:01:26.803Z,100.714
2022-12-07T03:02:26.792Z,100.714
2022-12-07T03:03:26.753Z,100.857
2022-12-07T03:04:26.793Z,100.786
2022-12-07T03:05:26.850Z,100.857
2022-12-07T03:06:26.864Z,100.857
2022-12-07T03:07:26.898Z,100.857
2022-12-07T03:08:27.007Z,100.857
2022-12-07T03:09:26.965Z,100.929
2022-12-07T03:10:27.000Z,100.857
2022-12-07T03:11:27.032Z,100.714
2022-12-07T03:12:27.063Z,100.929
2022-12-07T03:13:27.104Z,100.786
2022-12-07T03:14:27.122Z,100.643
2022-12-07T03:15:27.170Z,100.786
2022-12-07T03:16:27.283Z,100.714
2022-12-07T03:17:27.221Z,100.714
2022-12-07T03:18:27.254Z,100.714
2022-12-07T03:19:27.291Z,100.643
2022-12-07T03:20:27.316Z,100.714
2022-12-07T03:21:27.348Z,100.857
2022-12-07T03:22:27.387Z,100.786
2022-12-07T03:23:27.419Z,100.714
2022-12-07T03:24:27.455Z,100.786
2022-12-07T03:25:27.487Z,100.643
2022-12-07T03:26:27.511Z,100.786
2022-12-07T03:27:27.538Z,100.857
2022-12-07T03:28:27.575Z,100.714
2022-12-07T03:29:27.599Z,100.786
2022-12-07T03:30:27.637Z,100.857
2022-12-07T03:31:27.840Z,100.643
2022-12-07T03:32:27.703Z,100.857
2022-12-07T03:33:27.732Z,100.643
2022-12-07T03:34:27.740Z,100.5
2022-12-07T03:35:27.779Z,100.714
2022-12-07T03:36:27.797Z,100.643
2022-12-07T03:37:27.830Z,100.643
2022-12-07T03:38:27.863Z,100.786
2022-12-07T03:39:27.890Z,100.643
2022-12-07T03:40:27.930Z,100.643
2022-12-07T03:41:27.951Z,100.714
2022-12-07T03:42:27.985Z,100.5
2022-12-07T03:43:28.022Z,100.714
2022-12-07T03:44:28.049Z,100.714
2022-12-07T03:45:28.084Z,100.714
2022-12-07T03:46:28.147Z,100.5
2022-12-07T03:47:28.131Z,100.643
2022-12-07T03:48:28.168Z,100.643
2022-12-07T03:49:28.198Z,100.643
2022-12-07T03:50:28.227Z,100.643
2022-12-07T03:51:28.264Z,100.857
2022-12-07T03:52:28.291Z,100.571
2022-12-07T03:53:28.318Z,100.643
2022-12-07T03:54:28.356Z,100.714
2022-12-07T03:55:28.387Z,100.714
2022-12-07T03:56:28.424Z,100.643
2022-12-07T03:57:28.457Z,100.643
2022-12-07T03:58:28.472Z,100.571
2022-12-07T03:59:28.500Z,100.571
2022-12-07T04:00:28.545Z,100.5
2022-12-07T04:01:28.634Z,100.643
2022-12-07T04:02:28.668Z,100.571
2022-12-07T04:03:28.636Z,100.857
2022-12-07T04:04:28.664Z,100.714
2022-12-07T04:05:28.699Z,100.643
2022-12-07T04:06:28.726Z,100.571
2022-12-07T04:07:28.763Z,100.714
2022-12-07T04:08:28.796Z,100.5
2022-12-07T04:09:28.816Z,100.643
2022-12-07T04:10:28.861Z,100.571
2022-12-07T04:11:28.892Z,100.857
2022-12-07T04:12:28.924Z,100.714
2022-12-07T04:13:28.939Z,100.5
2022-12-07T04:14:28.973Z,100.714
2022-12-07T04:15:28.996Z,100.571
2022-12-07T04:16:29.131Z,100.643
2022-12-07T04:17:29.066Z,100.5
2022-12-07T04:18:29.093Z,100.714
2022-12-07T04:19:29.129Z,100.643
2022-12-07T04:20:29.146Z,100.571
2022-12-07T04:21:29.182Z,100.714
2022-12-07T04:22:29.218Z,100.714
2022-12-07T04:23:29.248Z,100.643
2022-12-07T04:24:29.290Z,100.5
2022-12-07T04:25:29.337Z,100.714
2022-12-07T04:26:29.345Z,100.714
2022-12-07T04:27:29.377Z,100.571
2022-12-07T04:28:29.399Z,100.571
2022-12-07T04:29:29.420Z,100.571
2022-12-07T04:30:29.468Z,100.571
2022-12-07T04:31:29.615Z,100.5
2022-12-07T04:32:29.533Z,100.714
2022-12-07T04:33:29.568Z,100.714
2022-12-07T04:34:29.611Z,100.714
2022-12-07T04:35:29.628Z,100.714
2022-12-07T04:36:29.668Z,100.5
2022-12-07T04:37:29.692Z,100.643
2022-12-07T04:38:29.727Z,100.571
2022-12-07T04:39:29.752Z,100.571
2022-12-07T04:40:29.791Z,100.571
2022-12-07T04:41:29.823Z,100.571
2022-12-07T04:42:29.852Z,100.786
2022-12-07T04:43:29.895Z,100.643
2022-12-07T04:44:29.928Z,100.786
2022-12-07T04:45:29.949Z,100.643
2022-12-07T04:46:30.010Z,100.714
2022-12-07T04:47:30.000Z,100.643
2022-12-07T04:48:30.035Z,100.643
2022-12-07T04:49:30.068Z,100.571
2022-12-07T04:50:30.097Z,100.714
2022-12-07T04:51:30.119Z,100.714
2022-12-07T04:52:30.157Z,100.643
2022-12-07T04:53:30.196Z,100.643
2022-12-07T04:54:30.226Z,100.643
2022-12-07T04:55:30.251Z,100.786
2022-12-07T04:56:30.280Z,100.714
2022-12-07T04:57:30.313Z,100.571
2022-12-07T04:58:30.344Z,100.786
2022-12-07T04:59:30.370Z,100.643
2022-12-07T05:00:30.447Z,100.571
2022-12-07T05:01:30.438Z,100.571
2022-12-07T05:02:30.523Z,100.786
2022-12-07T05:03:30.490Z,100.643
2022-12-07T05:04:30.525Z,100.5
2022-12-07T05:05:30.566Z,100.571
2022-12-07T05:06:30.603Z,100.571
2022-12-07T05:07:30.629Z,100.643
2022-12-07T05:08:30.660Z,100.714
2022-12-07T05:09:30.699Z,100.429
2022-12-07T05:10:30.735Z,100.571
2022-12-07T05:11:30.768Z,100.571
2022-12-07T05:12:30.798Z,100.571
2022-12-07T05:13:30.836Z,100.571
2022-12-07T05:14:30.863Z,100.714
2022-12-07T05:15:30.904Z,100.571
2022-12-07T05:16:31.023Z,100.571
2022-12-07T05:17:30.946Z,100.5
2022-12-07T05:18:30.982Z,100.571
2022-12-07T05:19:31.018Z,100.571
2022-12-07T05:20:31.061Z,100.571
2022-12-07T05:21:31.082Z,100.571
2022-12-07T05:22:31.108Z,100.571
2022-12-07T05:23:31.150Z,100.571
2022-12-07T05:24:31.179Z,100.714
2022-12-07T05:25:31.217Z,100.429
2022-12-07T05:26:31.255Z,100.571
2022-12-07T05:27:31.272Z,100.571
2022-12-07T05:28:31.307Z,100.571
2022-12-07T05:29:31.342Z,100.571
2022-12-07T05:30:31.373Z,100.571
2022-12-07T05:31:31.635Z,100.571
2022-12-07T05:32:31.446Z,100.5
2022-12-07T05:33:31.468Z,100.571
2022-12-07T05:34:31.496Z,100.571
2022-12-07T05:35:31.528Z,100.571
2022-12-07T05:36:31.564Z,100.571
2022-12-07T05:37:31.601Z,100.571
2022-12-07T05:38:31.634Z,100.5
2022-12-07T05:39:31.672Z,100.571
2022-12-07T05:40:31.693Z,100.571
2022-12-07T05:41:31.732Z,100.571
2022-12-07T05:42:31.767Z,100.5
2022-12-07T05:43:31.798Z,100.571
2022-12-07T05:44:31.825Z,100.571
2022-12-07T05:45:32.009Z,100.571
2022-12-07T05:46:31.889Z,100.5
2022-12-07T05:47:31.912Z,100.643
2022-12-07T05:48:31.942Z,100.643
2022-12-07T05:49:31.974Z,100.571
2022-12-07T05:50:32.012Z,100.643
2022-12-07T05:51:32.041Z,100.571
2022-12-07T05:52:32.074Z,100.571
2022-12-07T05:53:32.097Z,100.643
2022-12-07T05:54:32.132Z,100.571
2022-12-07T05:55:32.160Z,100.643
2022-12-07T05:56:32.209Z,100.714
2022-12-07T05:57:32.237Z,100.643
2022-12-07T05:58:32.263Z,100.643
2022-12-07T05:59:32.300Z,100.643
2022-12-07T06:00:32.334Z,100.643
2022-12-07T06:01:32.369Z,100.571
2022-12-07T06:02:32.517Z,100.5
2022-12-07T06:03:32.532Z,100.643
2022-12-07T06:04:32.509Z,100.571
2022-12-07T06:05:32.501Z,100.5
2022-12-07T06:06:32.617Z,100.643
2022-12-07T06:07:32.562Z,100.643
2022-12-07T06:08:32.648Z,100.643
2022-12-07T06:09:32.622Z,100.571
2022-12-07T06:10:32.658Z,100.643
2022-12-07T06:11:32.675Z,100.5
2022-12-07T06:12:32.705Z,100.643
2022-12-07T06:13:32.742Z,100.5
2022-12-07T06:14:32.771Z,100.571
2022-12-07T06:15:32.800Z,100.571
2022-12-07T06:16:32.862Z,100.643
2022-12-07T06:17:32.861Z,100.714
2022-12-07T06:18:32.898Z,100.643
2022-12-07T06:19:32.934Z,100.571
2022-12-07T06:20:32.967Z,100.5
2022-12-07T06:21:32.993Z,100.5
2022-12-07T06:22:33.027Z,100.571
2022-12-07T06:23:33.063Z,100.571
2022-12-07T06:24:33.098Z,100.643
2022-12-07T06:25:33.131Z,100.643
2022-12-07T06:26:33.163Z,100.643
2022-12-07T06:27:33.199Z,100.643
2022-12-07T06:28:33.241Z,100.571
2022-12-07T06:29:33.264Z,100.5
2022-12-07T06:30:33.302Z,100.714
2022-12-07T06:31:33.355Z,100.643
2022-12-07T06:32:33.358Z,100.5
2022-12-07T06:33:33.378Z,100.5
2022-12-07T06:34:33.411Z,100.571
2022-12-07T06:35:33.440Z,100.643
2022-12-07T06:36:33.480Z,100.5
2022-12-07T06:37:33.522Z,100.5
2022-12-07T06:38:33.547Z,100.5
2022-12-07T06:39:33.571Z,100.429
2022-12-07T06:40:33.605Z,100.714
2022-12-07T06:41:33.633Z,100.571
2022-12-07T06:42:33.658Z,100.571
2022-12-07T06:43:33.688Z,100.714
2022-12-07T06:44:33.730Z,100.571
2022-12-07T06:45:33.782Z,100.643
2022-12-07T06:46:33.785Z,100.571
2022-12-07T06:47:43.466Z,100.571
2022-12-07T06:48:33.863Z,100.429
2022-12-07T06:49:33.894Z,100.786
2022-12-07T06:50:33.924Z,100.571
2022-12-07T06:51:33.954Z,100.571
2022-12-07T06:52:33.982Z,100.571
2022-12-07T06:53:34.021Z,100.571
2022-12-07T06:54:34.051Z,100.571
2022-12-07T06:55:34.066Z,100.571
2022-12-07T06:56:34.097Z,100.571
2022-12-07T06:57:34.125Z,100.429
2022-12-07T06:58:34.150Z,100.429
2022-12-07T06:59:34.172Z,100.571
2022-12-07T07:00:34.203Z,100.429
2022-12-07T07:01:34.293Z,100.571
2022-12-07T07:02:34.310Z,100.714
2022-12-07T07:03:34.289Z,100.429
2022-12-07T07:04:34.317Z,100.714
2022-12-07T07:05:34.348Z,100.429
2022-12-07T07:06:34.377Z,100.714
2022-12-07T07:07:51.765Z,100.571
2022-12-07T07:08:34.468Z,100.429
2022-12-07T07:09:34.466Z,100.571
2022-12-07T07:10:34.502Z,100.571
2022-12-07T07:11:34.535Z,100.571
2022-12-07T07:12:34.573Z,100.571
2022-12-07T07:13:34.599Z,100.571
2022-12-07T07:14:34.622Z,100.571
2022-12-07T07:15:34.656Z,100.643
2022-12-07T07:16:34.805Z,100.571
2022-12-07T07:17:34.723Z,100.5
2022-12-07T07:18:34.744Z,100.571
2022-12-07T07:19:34.774Z,100.571
2022-12-07T07:20:34.800Z,100.571
2022-12-07T07:21:34.824Z,100.786
2022-12-07T07:22:34.853Z,100.643
2022-12-07T07:23:34.886Z,100.571
2022-12-07T07:24:34.922Z,100.714
2022-12-07T07:25:34.954Z,100.786
2022-12-07T07:26:34.980Z,100.571
2022-12-07T07:27:35.019Z,100.5
2022-12-07T07:28:35.044Z,100.571
2022-12-07T07:29:35.074Z,100.571
2022-12-07T07:30:35.136Z,100.643
2022-12-07T07:31:35.125Z,100.5
2022-12-07T07:32:35.166Z,100.571
2022-12-07T07:33:35.203Z,100.643
2022-12-07T07:34:35.231Z,100.5
2022-12-07T07:35:35.256Z,100.5
2022-12-07T07:36:35.286Z,100.714
2022-12-07T07:37:35.304Z,100.643
2022-12-07T07:38:35.333Z,100.714
2022-12-07T07:39:35.361Z,100.643
2022-12-07T07:40:35.393Z,100.5
2022-12-07T07:41:35.417Z,100.643
2022-12-07T07:42:35.444Z,100.643
2022-12-07T07:43:35.478Z,100.571
2022-12-07T07:44:35.732Z,100.5
2022-12-07T07:45:35.542Z,100.643
2022-12-07T07:46:35.669Z,100.5
2022-12-07T07:47:35.611Z,100.643
2022-12-07T07:48:35.654Z,100.5
2022-12-07T07:49:35.683Z,100.5
2022-12-07T07:50:35.784Z,100.571
2022-12-07T07:51:35.751Z,100.571
2022-12-07T07:52:35.770Z,100.5
2022-12-07T07:53:35.821Z,100.714
2022-12-07T07:54:35.838Z,100.571
2022-12-07T07:55:35.867Z,100.5
2022-12-07T07:56:35.899Z,100.571
2022-12-07T07:57:35.923Z,100.571
2022-12-07T07:58:35.958Z,100.571
2022-12-07T07:59:35.978Z,100.643
2022-12-07T08:00:36.010Z,100.571
2022-12-07T08:01:36.095Z,100.714
2022-12-07T08:02:36.068Z,100.714
2022-12-07T08:03:36.102Z,100.643
2022-12-07T08:04:36.175Z,100.571
2022-12-07T08:05:36.173Z,100.714
2022-12-07T08:06:36.198Z,100.714
2022-12-07T08:07:36.319Z,100.714
2022-12-07T08:08:36.251Z,100.643
2022-12-07T08:09:36.279Z,100.714
2022-12-07T08:10:36.321Z,100.571
2022-12-07T08:11:36.345Z,100.786
2022-12-07T08:12:36.379Z,100.643
2022-12-07T08:13:36.415Z,100.429
2022-12-07T08:14:36.446Z,100.786
2022-12-07T08:15:36.510Z,100.571
2022-12-07T08:16:36.497Z,100.571
2022-12-07T08:17:36.527Z,100.786
2022-12-07T08:18:36.569Z,100.643
2022-12-07T08:19:36.597Z,100.571
2022-12-07T08:20:36.620Z,100.786
2022-12-07T08:21:36.662Z,100.571
2022-12-07T08:22:36.686Z,100.571
2022-12-07T08:23:39.938Z,100.643
2022-12-07T08:24:36.763Z,100.571
2022-12-07T08:25:36.781Z,100.5
2022-12-07T08:26:36.816Z,100.429
2022-12-07T08:27:36.862Z,100.714
2022-12-07T08:28:36.890Z,100.643
2022-12-07T08:29:36.915Z,100.571
2022-12-07T08:30:36.944Z,100.571
2022-12-07T08:31:37.081Z,100.571
2022-12-07T08:32:37.003Z,100.5
2022-12-07T08:33:37.022Z,100.786
2022-12-07T08:34:37.059Z,100.643
2022-12-07T08:35:37.091Z,100.571
2022-12-07T08:36:37.119Z,100.643
2022-12-07T08:37:37.194Z,100.643
2022-12-07T08:38:37.180Z,100.571
2022-12-07T08:39:37.220Z,100.5
2022-12-07T08:40:37.248Z,100.643
2022-12-07T08:41:37.261Z,100.571
2022-12-07T08:42:37.308Z,100.643
2022-12-07T08:43:37.318Z,100.571
2022-12-07T08:44:37.346Z,100.571
2022-12-07T08:45:37.387Z,100.571
2022-12-07T08:46:37.507Z,100.714
2022-12-07T08:47:37.471Z,100.714
2022-12-07T08:48:37.475Z,100.643
2022-12-07T08:49:37.510Z,100.571
2022-12-07T08:50:37.540Z,100.571
2022-12-07T08:51:37.568Z,100.571
2022-12-07T08:52:37.600Z,100.786
2022-12-07T08:53:37.631Z,100.786
2022-12-07T08:54:37.670Z,100.571
2022-12-07T08:55:37.697Z,100.643
2022-12-07T08:56:37.733Z,100.571
2022-12-07T08:57:37.797Z,100.571
2022-12-07T08:58:37.792Z,100.571
2022-12-07T08:59:37.810Z,100.643
2022-12-07T09:00:37.851Z,100.571
2022-12-07T09:01:37.941Z,100.714
2022-12-07T09:02:37.914Z,100.5
2022-12-07T09:03:37.945Z,100.643
2022-12-07T09:04:37.982Z,100.643
2022-12-07T09:05:38.075Z,100.714
2022-12-07T09:06:38.180Z,100.786
2022-12-07T09:07:38.189Z,100.571
2022-12-07T09:08:38.114Z,100.5
2022-12-07T09:09:38.143Z,100.786
2022-12-07T09:10:38.175Z,100.786
2022-12-07T09:11:38.209Z,100.643
2022-12-07T09:12:38.232Z,100.643
2022-12-07T09:13:38.264Z,100.5
2022-12-07T09:14:38.300Z,100.643
2022-12-07T09:15:38.405Z,100.643
2022-12-07T09:16:38.409Z,100.714
2022-12-07T09:17:38.388Z,100.643
2022-12-07T09:18:38.425Z,100.571
2022-12-07T09:19:38.444Z,100.786
2022-12-07T09:20:38.480Z,100.786
2022-12-07T09:21:38.524Z,100.643
2022-12-07T09:22:38.559Z,100.714
2022-12-07T09:23:38.592Z,100.857
2022-12-07T09:24:38.621Z,100.571
2022-12-07T09:25:38.658Z,100.714
2022-12-07T09:26:38.679Z,100.571
2022-12-07T09:27:38.705Z,100.714
2022-12-07T09:28:38.732Z,100.571
2022-12-07T09:29:38.759Z,100.714
2022-12-07T09:30:59.632Z,100.571
2022-12-07T09:31:38.898Z,100.571
2022-12-07T09:32:38.957Z,100.571
2022-12-07T09:33:38.887Z,100.571
2022-12-07T09:34:39.076Z,100.643
2022-12-07T09:35:38.937Z,100.714
2022-12-07T09:36:38.964Z,100.786
2022-12-07T09:37:38.986Z,100.571
2022-12-07T09:38:39.025Z,100.571
2022-12-07T09:39:39.909Z,100.786
2022-12-07T09:40:39.084Z,100.643
2022-12-07T09:41:39.103Z,100.571
2022-12-07T09:42:39.258Z,100.714
2022-12-07T09:43:39.167Z,100.571
2022-12-07T09:44:39.200Z,100.714
2022-12-07T09:45:39.977Z,100.643
2022-12-07T09:46:39.311Z,100.571
2022-12-07T09:47:39.294Z,100.714
2022-12-07T09:48:39.314Z,100.714
2022-12-07T09:49:39.340Z,100.714
2022-12-07T09:50:39.377Z,100.714
2022-12-07T09:51:39.405Z,100.714
2022-12-07T09:52:39.578Z,100.714
2022-12-07T09:53:39.467Z,100.786
2022-12-07T09:54:39.493Z,100.714
2022-12-07T09:55:39.524Z,100.714
2022-12-07T09:56:39.550Z,100.786
2022-12-07T09:57:40.218Z,100.571
2022-12-07T09:58:39.624Z,100.714
2022-12-07T09:59:39.652Z,100.714
2022-12-07T10:00:39.679Z,100.714
2022-12-07T10:01:39.780Z,100.714
2022-12-07T10:02:39.746Z,100.714
2022-12-07T10:03:39.764Z,100.786
2022-12-07T10:04:39.831Z,100.571
2022-12-07T10:05:39.833Z,100.786
2022-12-07T10:06:39.875Z,100.643
2022-12-07T10:07:39.922Z,100.571
2022-12-07T10:08:39.946Z,100.571
2022-12-07T10:09:39.966Z,100.571
2022-12-07T10:10:40.002Z,100.714
2022-12-07T10:11:40.018Z,100.643
2022-12-07T10:12:40.060Z,100.786
2022-12-07T10:13:40.087Z,100.643
2022-12-07T10:15:06.241Z,100.571
2022-12-07T10:15:40.174Z,100.857
2022-12-07T10:16:40.319Z,100.571
2022-12-07T10:17:40.219Z,100.714
2022-12-07T10:18:40.244Z,100.643
2022-12-07T10:19:40.469Z,100.786
2022-12-07T10:20:40.499Z,100.786
2022-12-07T10:21:40.540Z,100.643
2022-12-07T10:22:40.567Z,100.643
2022-12-07T10:23:40.598Z,100.643
2022-12-07T10:24:40.628Z,100.643
2022-12-07T10:25:40.654Z,100.643
2022-12-07T10:26:40.692Z,100.643
2022-12-07T10:27:40.713Z,100.643
2022-12-07T10:28:42.437Z,100.571
2022-12-07T10:29:40.757Z,100.714
2022-12-07T10:30:40.796Z,100.786
2022-12-07T10:31:40.967Z,100.714
2022-12-07T10:32:40.868Z,100.714
2022-12-07T10:33:40.902Z,100.571
2022-12-07T10:34:43.357Z,100.714
2022-12-07T10:35:40.956Z,100.714
2022-12-07T10:36:40.992Z,100.5
2022-12-07T10:37:41.020Z,100.571
2022-12-07T10:38:41.048Z,100.714
2022-12-07T10:39:41.081Z,100.571
2022-12-07T10:40:46.217Z,100.571
2022-12-07T10:41:41.127Z,100.571
2022-12-07T10:42:41.167Z,100.571
2022-12-07T10:43:41.216Z,100.643
2022-12-07T10:44:41.313Z,100.643
2022-12-07T10:45:52.079Z,100.571
2022-12-07T10:46:41.309Z,100.571
2022-12-07T10:47:41.333Z,100.5
2022-12-07T10:48:41.352Z,100.643
2022-12-07T10:49:41.375Z,100.643
2022-12-07T10:50:41.403Z,100.714
2022-12-07T10:51:41.438Z,100.643
2022-12-07T10:52:41.475Z,100.643
2022-12-07T10:53:41.496Z,100.643
2022-12-07T10:54:41.521Z,100.571
2022-12-07T10:55:41.559Z,100.643
2022-12-07T10:56:41.582Z,100.571
2022-12-07T10:57:41.610Z,100.714
2022-12-07T10:58:41.647Z,100.714
2022-12-07T10:59:41.668Z,100.643
2022-12-07T11:00:41.768Z,100.643
2022-12-07T11:01:41.749Z,100.571
2022-12-07T11:02:41.807Z,100.643
2022-12-07T11:03:41.790Z,100.714
2022-12-07T11:04:41.817Z,100.714
2022-12-07T11:05:41.851Z,100.571
2022-12-07T11:06:41.885Z,100.571
2022-12-07T11:07:41.952Z,100.714
2022-12-07T11:08:41.952Z,100.643
2022-12-07T11:10:07.332Z,100.5
2022-12-07T11:10:42.005Z,100.571
2022-12-07T11:11:42.037Z,100.714
2022-12-07T11:12:42.073Z,100.643
2022-12-07T11:13:42.120Z,100.643
2022-12-07T11:14:42.149Z,100.643
2022-12-07T11:15:42.182Z,100.5
2022-12-07T11:16:42.277Z,100.571
2022-12-07T11:17:42.236Z,100.643
2022-12-07T11:18:42.265Z,100.714
2022-12-07T11:19:42.309Z,100.714
2022-12-07T11:20:42.348Z,100.643
2022-12-07T11:21:42.375Z,100.5
2022-12-07T11:22:42.409Z,100.643
2022-12-07T11:23:42.424Z,100.5
2022-12-07T11:24:42.460Z,100.643
2022-12-07T11:25:42.486Z,100.643
2022-12-07T11:26:42.530Z,100.5
2022-12-07T11:27:42.549Z,100.643
2022-12-07T11:28:42.574Z,100.714
2022-12-07T11:29:42.612Z,100.571
2022-12-07T11:30:42.641Z,100.714
2022-12-07T11:31:42.716Z,100.643
2022-12-07T11:32:42.702Z,100.643
2022-12-07T11:33:42.730Z,100.643
2022-12-07T11:34:42.764Z,100.5
2022-12-07T11:35:42.784Z,100.643
2022-12-07T11:36:42.887Z,100.643
2022-12-07T11:37:42.868Z,100.5
2022-12-07T11:38:42.884Z,100.5
2022-12-07T11:39:42.912Z,100.5
2022-12-07T11:40:42.938Z,100.5
2022-12-07T11:41:42.975Z,100.5
2022-12-07T11:42:42.998Z,100.643
2022-12-07T11:43:43.032Z,100.5
2022-12-07T11:44:43.055Z,100.643
2022-12-07T11:45:43.085Z,100.643
2022-12-07T11:46:43.223Z,100.571
2022-12-07T11:47:43.156Z,100.571
2022-12-07T11:48:43.179Z,100.643
2022-12-07T11:49:43.217Z,100.571
2022-12-07T11:50:43.239Z,100.714
2022-12-07T11:51:43.431Z,100.571
2022-12-07T11:52:43.458Z,100.571
2022-12-07T11:53:43.496Z,100.714
2022-12-07T11:54:43.520Z,100.5
2022-12-07T11:55:43.536Z,100.714
2022-12-07T11:56:43.610Z,100.5
2022-12-07T11:57:43.606Z,100.643
2022-12-07T11:58:43.631Z,100.643
2022-12-07T11:59:43.672Z,100.714
2022-12-07T12:00:43.699Z,100.429
2022-12-07T12:01:43.774Z,100.5
2022-12-07T12:02:43.832Z,100.571
2022-12-07T12:03:48.148Z,100.571
2022-12-07T12:04:43.812Z,100.714
2022-12-07T12:05:43.856Z,100.643
2022-12-07T12:06:43.873Z,100.571
2022-12-07T12:09:46.607Z,100.571
2022-12-07T12:10:43.974Z,100.786
2022-12-07T12:11:44.053Z,100.643
2022-12-07T12:14:46.551Z,100.571
2022-12-07T12:15:44.122Z,100.643
2022-12-07T12:16:44.236Z,100.5
2022-12-07T12:17:44.193Z,100.571